createdAt,value
2018-07-24T00:01:35.907Z,20.40
2018-07-24T00:04:04.336Z,20.30
2018-07-24T00:06:32.704Z,20.30
2018-07-24T00:09:01.117Z,20.40
2018-07-24T00:11:29.546Z,20.40
2018-07-24T00:13:57.931Z,20.40
2018-07-24T00:16:26.320Z,20.40
2018-07-24T00:18:54.737Z,20.40
2018-07-24T00:21:23.156Z,20.40
2018-07-24T00:23:51.573Z,20.40
2018-07-24T00:26:20.000Z,20.40
2018-07-24T00:28:48.358Z,20.40
2018-07-24T00:31:16.785Z,20.30
2018-07-24T00:33:45.178Z,20.30
2018-07-24T00:36:13.614Z,20.30
2018-07-24T00:38:42.032Z,20.30
2018-07-24T00:41:10.436Z,20.20
2018-07-24T00:43:38.840Z,20.20
2018-07-24T00:46:07.240Z,20.10
2018-07-24T00:48:35.664Z,20.10
2018-07-24T00:51:04.065Z,20.10
2018-07-24T00:53:32.480Z,20.10
2018-07-24T00:56:00.889Z,20.10
2018-07-24T00:58:29.362Z,20.00
2018-07-24T01:00:57.873Z,20.00
2018-07-24T01:03:26.268Z,20.00
2018-07-24T01:05:54.722Z,19.90
2018-07-24T01:08:23.132Z,19.90
2018-07-24T01:10:51.548Z,19.80
2018-07-24T01:13:19.973Z,19.90
2018-07-24T01:15:48.385Z,19.80
2018-07-24T01:18:16.798Z,19.80
2018-07-24T01:20:45.211Z,19.70
2018-07-24T01:23:13.689Z,19.60
2018-07-24T01:28:10.170Z,19.60
2018-07-24T01:30:38.595Z,19.60
2018-07-24T01:33:07.092Z,19.50
2018-07-24T01:35:35.458Z,19.50
2018-07-24T01:38:03.874Z,19.50
2018-07-24T01:40:32.229Z,19.50
2018-07-24T01:43:00.607Z,19.50
2018-07-24T01:45:29.015Z,19.50
2018-07-24T01:47:57.364Z,19.40
2018-07-24T01:50:25.775Z,19.40
2018-07-24T01:52:54.129Z,19.40
2018-07-24T01:55:22.520Z,19.30
2018-07-24T01:57:50.913Z,19.30
2018-07-24T02:00:19.334Z,19.30
2018-07-24T02:02:47.726Z,19.20
2018-07-24T02:05:16.152Z,19.20
2018-07-24T02:07:44.549Z,19.20
2018-07-24T02:10:12.977Z,19.20
2018-07-24T02:12:41.486Z,19.20
2018-07-24T02:15:09.885Z,19.10
2018-07-24T02:17:38.417Z,19.10
2018-07-24T02:20:06.994Z,19.10
2018-07-24T02:22:35.499Z,19.10
2018-07-24T02:25:03.935Z,19.10
2018-07-24T02:27:32.296Z,19.10
2018-07-24T02:30:00.690Z,19.00
2018-07-24T02:32:29.065Z,19.00
2018-07-24T02:34:57.457Z,18.90
2018-07-24T02:37:25.889Z,18.90
2018-07-24T02:39:54.240Z,18.90
2018-07-24T02:42:22.697Z,19.00
2018-07-24T02:44:51.130Z,18.90
2018-07-24T02:47:19.507Z,19.00
2018-07-24T02:49:47.897Z,19.00
2018-07-24T02:52:16.281Z,19.00
2018-07-24T02:54:44.754Z,18.90
2018-07-24T02:57:13.195Z,18.90
2018-07-24T03:02:09.713Z,18.90
2018-07-24T03:04:38.205Z,18.90
2018-07-24T03:07:06.592Z,18.90
2018-07-24T03:09:34.984Z,18.90
2018-07-24T03:12:03.366Z,18.90
2018-07-24T03:14:31.819Z,18.90
2018-07-24T03:17:00.171Z,18.90
2018-07-24T03:19:28.568Z,18.80
2018-07-24T03:21:56.942Z,18.80
2018-07-24T03:24:25.354Z,18.80
2018-07-24T03:26:53.728Z,18.80
2018-07-24T03:29:22.196Z,18.80
2018-07-24T03:31:50.594Z,18.80
2018-07-24T03:34:18.964Z,18.80
2018-07-24T03:36:47.387Z,18.80
2018-07-24T03:39:15.742Z,18.80
2018-07-24T03:41:44.221Z,18.80
2018-07-24T03:44:12.609Z,18.80
2018-07-24T03:46:40.980Z,18.80
2018-07-24T03:49:09.334Z,18.70
2018-07-24T03:51:37.752Z,18.70
2018-07-24T03:54:06.216Z,18.70
2018-07-24T03:56:34.595Z,18.70
2018-07-24T03:59:03.109Z,18.70
2018-07-24T04:01:31.476Z,18.70
2018-07-24T04:03:59.923Z,18.60
2018-07-24T04:06:28.289Z,18.70
2018-07-24T04:08:56.681Z,18.60
2018-07-24T04:11:25.049Z,18.60
2018-07-24T04:13:53.464Z,18.60
2018-07-24T04:16:21.813Z,18.60
2018-07-24T04:18:50.453Z,18.60
2018-07-24T04:21:19.908Z,18.60
2018-07-24T04:23:49.160Z,18.60
2018-07-24T04:26:17.715Z,18.60
2018-07-24T04:31:15.209Z,18.60
2018-07-24T04:33:44.107Z,18.50
2018-07-24T04:36:12.529Z,18.50
2018-07-24T04:38:40.948Z,18.50
2018-07-24T04:41:09.350Z,18.50
2018-07-24T04:43:37.789Z,18.50
2018-07-24T04:46:06.226Z,18.40
2018-07-24T04:48:34.610Z,18.40
2018-07-24T04:51:03.082Z,18.40
2018-07-24T04:53:31.463Z,18.50
2018-07-24T04:56:00.045Z,18.60
2018-07-24T04:58:28.441Z,18.70
2018-07-24T05:00:56.837Z,18.70
2018-07-24T05:03:25.233Z,18.80
2018-07-24T05:05:53.705Z,18.80
2018-07-24T05:08:22.189Z,18.80
2018-07-24T05:13:18.614Z,18.90
2018-07-24T05:15:47.041Z,18.80
2018-07-24T05:18:15.499Z,18.70
2018-07-24T05:20:43.877Z,18.80
2018-07-24T05:23:12.291Z,18.90
2018-07-24T05:25:40.643Z,19.00
2018-07-24T05:28:09.033Z,19.10
2018-07-24T05:30:37.475Z,19.10
2018-07-24T05:33:06.168Z,19.10
2018-07-24T05:35:34.514Z,19.10
2018-07-24T05:38:02.921Z,19.20
2018-07-24T05:40:31.304Z,19.30
2018-07-24T05:42:59.676Z,19.40
2018-07-24T05:45:28.142Z,19.50
2018-07-24T05:47:56.559Z,19.50
2018-07-24T05:50:24.957Z,19.50
2018-07-24T05:52:53.307Z,19.50
2018-07-24T05:55:21.708Z,19.60
2018-07-24T05:57:50.098Z,19.60
2018-07-24T06:00:18.532Z,19.70
2018-07-24T06:02:46.973Z,19.80
2018-07-24T06:05:15.333Z,19.90
2018-07-24T06:10:11.838Z,20.10
2018-07-24T06:12:40.354Z,20.30
2018-07-24T06:15:09.318Z,20.30
2018-07-24T06:17:37.777Z,20.30
2018-07-24T06:20:07.826Z,20.30
2018-07-24T06:22:36.276Z,20.40
2018-07-24T06:25:04.774Z,20.40
2018-07-24T06:27:33.157Z,20.40
2018-07-24T06:30:01.566Z,20.50
2018-07-24T06:34:58.120Z,20.60
2018-07-24T06:37:26.444Z,20.70
2018-07-24T06:39:54.792Z,20.70
2018-07-24T06:42:23.189Z,20.70
2018-07-24T06:44:51.621Z,20.80
2018-07-24T06:47:19.969Z,20.90
2018-07-24T06:49:48.353Z,21.00
2018-07-24T06:52:16.810Z,21.00
2018-07-24T06:54:45.241Z,21.10
2018-07-24T06:57:13.631Z,21.20
2018-07-24T06:59:42.003Z,21.30
2018-07-24T07:02:10.449Z,21.40
2018-07-24T07:04:38.882Z,21.50
2018-07-24T07:07:07.297Z,21.60
2018-07-24T07:09:35.896Z,21.60
2018-07-24T07:12:04.422Z,21.70
2018-07-24T07:14:32.811Z,21.80
2018-07-24T07:17:01.214Z,22.00
2018-07-24T07:19:29.641Z,22.00
2018-07-24T07:21:58.079Z,22.10
2018-07-24T07:24:26.538Z,22.30
2018-07-24T07:26:54.904Z,22.40
2018-07-24T07:29:23.305Z,22.60
2018-07-24T07:31:51.752Z,22.70
2018-07-24T07:34:20.075Z,22.80
2018-07-24T07:36:48.454Z,22.80
2018-07-24T07:39:16.850Z,23.00
2018-07-24T07:41:45.273Z,23.00
2018-07-24T07:44:13.717Z,23.20
2018-07-24T07:46:42.117Z,23.20
2018-07-24T07:49:10.484Z,23.30
2018-07-24T07:51:38.888Z,23.40
2018-07-24T07:54:07.333Z,23.60
2018-07-24T07:56:35.765Z,23.70
2018-07-24T07:59:04.187Z,23.90
2018-07-24T08:01:32.613Z,24.00
2018-07-24T08:04:01.070Z,23.90
2018-07-24T08:06:29.529Z,24.10
2018-07-24T08:08:57.941Z,24.10
2018-07-24T08:11:26.404Z,24.30
2018-07-24T08:13:54.761Z,24.30
2018-07-24T08:16:23.107Z,24.40
2018-07-24T08:18:51.502Z,24.50
2018-07-24T08:21:19.875Z,24.50
2018-07-24T08:23:48.330Z,24.70
2018-07-24T08:26:16.760Z,24.80
2018-07-24T08:28:45.164Z,24.90
2018-07-24T08:31:13.547Z,25.00
2018-07-24T08:33:41.990Z,25.10
2018-07-24T08:36:10.397Z,25.30
2018-07-24T08:38:38.783Z,25.40
2018-07-24T08:41:07.625Z,25.50
2018-07-24T08:43:36.005Z,25.50
2018-07-24T08:46:04.448Z,25.30
2018-07-24T08:48:32.825Z,25.30
2018-07-24T08:51:01.273Z,25.60
2018-07-24T08:53:30.053Z,26.10
2018-07-24T08:55:58.063Z,26.30
2018-07-24T08:58:26.512Z,26.30
2018-07-24T09:00:54.883Z,26.40
2018-07-24T09:03:23.289Z,26.60
2018-07-24T09:05:51.726Z,26.80
2018-07-24T09:08:20.099Z,26.70
2018-07-24T09:10:48.489Z,26.80
2018-07-24T09:13:16.933Z,27.10
2018-07-24T09:15:45.289Z,27.30
2018-07-24T09:18:13.777Z,27.60
2018-07-24T09:20:42.118Z,27.50
2018-07-24T09:23:10.537Z,27.70
2018-07-24T09:25:38.879Z,27.70
2018-07-24T09:28:07.295Z,27.80
2018-07-24T09:30:35.696Z,27.90
2018-07-24T09:33:04.154Z,28.00
2018-07-24T09:35:32.536Z,28.10
2018-07-24T09:38:00.968Z,27.90
2018-07-24T09:40:30.120Z,28.00
2018-07-24T09:42:58.532Z,28.20
2018-07-24T09:45:26.912Z,28.40
2018-07-24T09:47:55.332Z,28.40
2018-07-24T09:50:23.780Z,28.70
2018-07-24T09:52:52.207Z,29.00
2018-07-24T09:55:20.667Z,28.90
2018-07-24T09:57:49.064Z,29.00
2018-07-24T10:00:22.131Z,29.20
2018-07-24T10:02:50.553Z,29.50
2018-07-24T10:05:18.990Z,29.50
2018-07-24T10:07:50.183Z,29.70
2018-07-24T10:10:18.573Z,29.80
2018-07-24T10:12:47.090Z,29.80
2018-07-24T10:15:15.348Z,30.00
2018-07-24T10:17:43.735Z,30.10
2018-07-24T10:20:12.203Z,30.70
2018-07-24T10:22:40.828Z,31.00
2018-07-24T10:25:09.246Z,31.40
2018-07-24T10:27:37.650Z,32.00
2018-07-24T10:30:06.164Z,32.20
2018-07-24T10:32:34.749Z,32.70
2018-07-24T10:35:03.221Z,32.90
2018-07-24T10:37:31.589Z,33.20
2018-07-24T10:39:59.998Z,32.90
2018-07-24T10:42:28.430Z,33.10
2018-07-24T10:44:56.851Z,33.40
2018-07-24T10:47:25.280Z,33.30
2018-07-24T10:49:53.655Z,33.50
2018-07-24T10:52:22.067Z,33.80
2018-07-24T10:54:50.479Z,34.30
2018-07-24T10:57:18.856Z,33.30
2018-07-24T10:59:47.617Z,33.80
2018-07-24T11:02:16.080Z,34.80
2018-07-24T11:04:44.516Z,34.80
2018-07-24T11:09:41.069Z,35.00
2018-07-24T11:12:09.885Z,34.70
2018-07-24T11:14:38.313Z,34.40
2018-07-24T11:17:06.699Z,34.10
2018-07-24T11:19:35.112Z,34.50
2018-07-24T11:22:03.689Z,34.50
2018-07-24T11:24:31.998Z,35.20
2018-07-24T11:27:00.345Z,35.40
2018-07-24T11:31:56.933Z,34.80
2018-07-24T11:34:25.359Z,35.40
2018-07-24T11:36:53.789Z,36.00
2018-07-24T11:39:22.225Z,35.70
2018-07-24T11:41:50.685Z,35.10
2018-07-24T11:44:19.073Z,34.90
2018-07-24T11:46:47.543Z,35.40
2018-07-24T11:49:15.986Z,35.00
2018-07-24T11:51:44.497Z,34.90
2018-07-24T11:54:12.792Z,35.40
2018-07-24T11:56:41.281Z,34.80
2018-07-24T11:59:09.716Z,34.70
2018-07-24T12:01:38.140Z,34.80
2018-07-24T12:04:06.545Z,35.30
2018-07-24T12:06:34.955Z,34.80
2018-07-24T12:09:03.469Z,35.80
2018-07-24T12:11:31.885Z,36.60
2018-07-24T12:14:00.295Z,36.90
2018-07-24T12:16:28.733Z,36.90
2018-07-24T12:18:57.308Z,37.30
2018-07-24T12:21:25.868Z,37.40
2018-07-24T12:23:54.297Z,36.80
2018-07-24T12:26:22.729Z,35.40
2018-07-24T12:28:51.179Z,36.10
2018-07-24T12:31:19.564Z,35.70
2018-07-24T12:33:47.963Z,35.50
2018-07-24T12:36:16.392Z,36.00
2018-07-24T12:38:44.731Z,36.80
2018-07-24T12:41:13.201Z,37.20
2018-07-24T12:43:41.686Z,37.10
2018-07-24T12:46:10.153Z,37.20
2018-07-24T12:48:38.545Z,37.60
2018-07-24T12:51:07.078Z,38.10
2018-07-24T12:56:03.587Z,37.30
2018-07-24T12:58:32.096Z,37.20
2018-07-24T13:01:00.477Z,36.50
2018-07-24T13:03:28.868Z,37.10
2018-07-24T13:05:57.284Z,37.90
2018-07-24T13:08:25.694Z,37.60
2018-07-24T13:10:54.228Z,37.70
2018-07-24T13:15:50.664Z,37.50
2018-07-24T13:20:47.240Z,37.00
2018-07-24T13:23:15.673Z,37.30
2018-07-24T13:25:44.118Z,37.20
2018-07-24T13:28:12.547Z,37.70
2018-07-24T13:30:40.971Z,38.20
2018-07-24T13:33:09.372Z,37.60
2018-07-24T13:35:37.759Z,36.30
2018-07-24T13:38:06.406Z,36.00
2018-07-24T13:40:34.906Z,35.70
2018-07-24T13:43:03.365Z,35.70
2018-07-24T13:45:31.814Z,36.40
2018-07-24T13:48:00.185Z,36.60
2018-07-24T13:50:27.858Z,37.80
2018-07-24T13:52:56.365Z,38.50
2018-07-24T13:55:24.765Z,38.40
2018-07-24T13:57:53.192Z,38.40
2018-07-24T14:00:20.851Z,37.70
2018-07-24T14:02:49.291Z,37.30
2018-07-24T14:05:17.697Z,36.40
2018-07-24T14:07:46.062Z,35.50
2018-07-24T14:10:14.515Z,34.90
2018-07-24T14:12:42.964Z,35.20
2018-07-24T14:15:11.410Z,35.60
2018-07-24T14:17:39.916Z,35.80
2018-07-24T14:20:08.338Z,36.70
2018-07-24T14:22:36.819Z,37.70
2018-07-24T14:25:05.233Z,37.90
2018-07-24T14:27:33.881Z,37.60
2018-07-24T14:30:02.433Z,37.80
2018-07-24T14:32:30.830Z,37.90
2018-07-24T14:34:59.171Z,38.00
2018-07-24T14:37:27.656Z,38.60
2018-07-24T14:39:56.090Z,39.10
2018-07-24T14:42:24.581Z,38.90
2018-07-24T14:44:52.984Z,39.10
2018-07-24T14:47:21.398Z,38.70
2018-07-24T14:49:50.012Z,38.50
2018-07-24T14:52:18.369Z,37.90
2018-07-24T14:54:46.816Z,38.00
2018-07-24T14:57:15.185Z,38.10
2018-07-24T14:59:43.659Z,38.30
2018-07-24T15:02:12.178Z,38.50
2018-07-24T15:07:09.125Z,39.30
2018-07-24T15:09:37.988Z,39.80
2018-07-24T15:12:06.771Z,40.00
2018-07-24T15:14:35.211Z,39.10
2018-07-24T15:17:03.738Z,39.10
2018-07-24T15:19:32.153Z,39.50
2018-07-24T15:22:00.597Z,39.70
2018-07-24T15:24:29.005Z,39.30
2018-07-24T15:26:57.462Z,39.10
2018-07-24T15:29:25.854Z,38.70
2018-07-24T15:31:54.370Z,38.40
2018-07-24T15:34:22.858Z,39.10
2018-07-24T15:36:51.249Z,39.30
2018-07-24T15:39:19.699Z,39.50
2018-07-24T15:41:48.137Z,39.70
2018-07-24T15:44:16.619Z,39.60
2018-07-24T15:46:45.198Z,39.90
2018-07-24T15:49:13.574Z,39.10
2018-07-24T15:51:42.024Z,39.00
2018-07-24T15:54:10.600Z,38.80
2018-07-24T15:56:39.026Z,38.60
2018-07-24T15:59:07.471Z,38.70
2018-07-24T16:01:35.932Z,39.30
2018-07-24T16:04:04.426Z,38.90
2018-07-24T16:09:00.964Z,39.00
2018-07-24T16:13:57.536Z,39.10
2018-07-24T16:16:26.729Z,39.60
2018-07-24T16:21:23.314Z,40.20
2018-07-24T16:23:51.792Z,39.70
2018-07-24T16:26:20.189Z,40.20
2018-07-24T16:28:48.709Z,40.60
2018-07-24T16:31:17.161Z,40.60
2018-07-24T16:33:45.660Z,40.50
2018-07-24T16:36:14.167Z,40.70
2018-07-24T16:38:42.613Z,40.70
2018-07-24T16:41:11.125Z,40.90
2018-07-24T16:43:39.589Z,40.90
2018-07-24T16:46:08.041Z,40.80
2018-07-24T16:48:36.525Z,40.20
2018-07-24T16:51:04.945Z,40.10
2018-07-24T16:53:33.380Z,39.50
2018-07-24T16:56:01.879Z,39.70
2018-07-24T16:58:30.840Z,39.60
2018-07-24T17:00:59.856Z,39.60
2018-07-24T17:03:28.491Z,39.60
2018-07-24T17:05:56.953Z,40.00
2018-07-24T17:10:53.492Z,39.70
2018-07-24T17:13:22.133Z,39.50
2018-07-24T17:15:50.936Z,39.40
2018-07-24T17:18:19.816Z,39.50
2018-07-24T17:20:49.072Z,39.40
2018-07-24T17:23:17.616Z,39.50
2018-07-24T17:28:14.229Z,39.50
2018-07-24T17:33:10.729Z,39.30
2018-07-24T17:35:39.158Z,38.90
2018-07-24T17:38:07.582Z,38.90
2018-07-24T17:40:36.112Z,38.90
2018-07-24T17:43:04.440Z,39.00
2018-07-24T17:45:32.884Z,39.10
2018-07-24T17:48:01.902Z,38.60
2018-07-24T17:50:31.640Z,38.30
2018-07-24T17:53:00.058Z,38.20
2018-07-24T17:55:28.464Z,38.00
2018-07-24T17:57:56.998Z,37.90
2018-07-24T18:00:25.646Z,37.80
2018-07-24T18:02:54.493Z,37.60
2018-07-24T18:05:23.120Z,37.50
2018-07-24T18:07:51.794Z,37.40
2018-07-24T18:10:20.479Z,37.30
2018-07-24T18:12:49.300Z,37.10
2018-07-24T18:15:17.809Z,37.00
2018-07-24T18:17:46.265Z,36.70
2018-07-24T18:20:14.740Z,36.60
2018-07-24T18:22:43.533Z,36.40
2018-07-24T18:25:12.739Z,36.10
2018-07-24T18:27:42.157Z,35.90
2018-07-24T18:30:11.817Z,35.70
2018-07-24T18:32:41.359Z,35.50
2018-07-24T18:35:10.453Z,35.30
2018-07-24T18:37:39.303Z,35.10
2018-07-24T18:40:07.868Z,34.90
2018-07-24T18:42:36.374Z,34.70
2018-07-24T18:45:04.863Z,34.50
2018-07-24T18:47:33.657Z,34.20
2018-07-24T18:50:02.768Z,33.90
2018-07-24T18:52:32.272Z,33.60
2018-07-24T18:55:01.717Z,33.30
2018-07-24T18:57:31.257Z,33.00
2018-07-24T19:00:00.506Z,32.70
2018-07-24T19:02:29.322Z,32.50
2018-07-24T19:04:57.795Z,32.20
2018-07-24T19:07:26.226Z,31.80
2018-07-24T19:09:54.593Z,31.40
2018-07-24T19:12:23.608Z,31.20
2018-07-24T19:14:53.045Z,30.80
2018-07-24T19:17:22.653Z,30.60
2018-07-24T19:19:52.023Z,30.50
2018-07-24T19:22:21.862Z,30.20
2018-07-24T19:24:51.559Z,30.00
2018-07-24T19:27:20.762Z,29.90
2018-07-24T19:29:49.344Z,29.70
2018-07-24T19:32:17.837Z,29.60
2018-07-24T19:34:46.373Z,29.50
2018-07-24T19:37:14.877Z,29.30
2018-07-24T19:39:43.965Z,29.20
2018-07-24T19:42:13.449Z,29.00
2018-07-24T19:44:42.701Z,28.80
2018-07-24T19:47:12.281Z,28.70
2018-07-24T19:49:41.416Z,28.50
2018-07-24T19:52:10.372Z,28.30
2018-07-24T19:54:38.858Z,28.20
2018-07-24T19:57:07.361Z,28.10
2018-07-24T19:59:35.748Z,27.90
2018-07-24T20:02:04.358Z,27.80
2018-07-24T20:04:32.974Z,27.50
2018-07-24T20:07:01.664Z,27.50
2018-07-24T20:09:30.124Z,27.30
2018-07-24T20:11:58.609Z,27.20
2018-07-24T20:14:27.024Z,27.20
2018-07-24T20:16:55.637Z,27.10
2018-07-24T20:21:52.752Z,26.80
2018-07-24T20:24:21.359Z,26.70
2018-07-24T20:26:49.794Z,26.50
2018-07-24T20:29:18.180Z,26.50
2018-07-24T20:31:46.640Z,26.40
2018-07-24T20:34:15.225Z,26.30
2018-07-24T20:36:43.703Z,26.20
2018-07-24T20:39:12.937Z,26.10
2018-07-24T20:41:41.860Z,26.10
2018-07-24T20:44:10.596Z,26.00
2018-07-24T20:46:39.054Z,25.90
2018-07-24T20:49:07.602Z,25.80
2018-07-24T20:51:36.252Z,25.70
2018-07-24T20:54:04.866Z,25.70
2018-07-24T20:56:33.363Z,25.60
2018-07-24T20:59:01.832Z,25.60
2018-07-24T21:01:30.299Z,25.40
2018-07-24T21:03:58.765Z,25.40
2018-07-24T21:06:27.226Z,25.30
2018-07-24T21:08:55.634Z,25.30
2018-07-24T21:11:24.154Z,25.20
2018-07-24T21:13:52.588Z,25.10
2018-07-24T21:16:21.027Z,25.00
2018-07-24T21:21:18.086Z,24.90
2018-07-24T21:23:46.473Z,24.90
2018-07-24T21:26:14.886Z,24.80
2018-07-24T21:28:43.298Z,24.80
2018-07-24T21:31:11.935Z,24.70
2018-07-24T21:33:40.415Z,24.50
2018-07-24T21:36:08.778Z,24.30
2018-07-24T21:38:37.174Z,24.30
2018-07-24T21:41:05.792Z,24.20
2018-07-24T21:43:34.284Z,24.20
2018-07-24T21:46:02.738Z,24.20
2018-07-24T21:48:31.212Z,24.20
2018-07-24T21:50:59.597Z,24.10
2018-07-24T21:53:28.066Z,24.10
2018-07-24T21:55:56.489Z,24.00
2018-07-24T21:58:24.941Z,24.00
2018-07-24T22:01:25.158Z,24.00
2018-07-24T22:03:53.573Z,23.90
2018-07-24T22:06:22.049Z,23.80
2018-07-24T22:08:50.540Z,23.80
2018-07-24T22:11:18.848Z,23.80
2018-07-24T22:16:15.341Z,23.70
2018-07-24T22:18:43.759Z,23.70
2018-07-24T22:21:12.161Z,23.50
2018-07-24T22:23:40.584Z,23.50
2018-07-24T22:26:08.994Z,23.40
2018-07-24T22:28:37.364Z,23.40
2018-07-24T22:31:06.629Z,23.40
2018-07-24T22:33:35.069Z,23.30
2018-07-24T22:36:03.475Z,23.30
2018-07-24T22:38:31.867Z,23.20
2018-07-24T22:41:00.246Z,23.10
2018-07-24T22:43:28.648Z,23.10
2018-07-24T22:45:57.068Z,23.00
2018-07-24T22:48:25.486Z,22.90
2018-07-24T22:50:53.857Z,22.90
2018-07-24T22:53:22.314Z,22.70
2018-07-24T22:55:50.685Z,22.70
2018-07-24T22:58:19.084Z,22.70
2018-07-24T23:00:47.502Z,22.70
2018-07-24T23:03:15.930Z,22.70
2018-07-24T23:05:44.339Z,22.60
2018-07-24T23:08:12.688Z,22.60
2018-07-24T23:10:41.100Z,22.60
2018-07-24T23:13:09.508Z,22.60
2018-07-24T23:15:37.895Z,22.60
2018-07-24T23:18:06.265Z,22.50
2018-07-24T23:20:34.768Z,22.40
2018-07-24T23:23:03.185Z,22.40
2018-07-24T23:25:31.637Z,22.30
2018-07-24T23:28:00.074Z,22.30
2018-07-24T23:30:28.485Z,22.10
2018-07-24T23:32:56.939Z,22.10
2018-07-24T23:35:25.272Z,22.10
2018-07-24T23:37:53.637Z,22.10
2018-07-24T23:40:22.053Z,21.90
2018-07-24T23:42:50.476Z,21.90
2018-07-24T23:45:18.847Z,21.80
2018-07-24T23:47:47.213Z,21.80
2018-07-24T23:50:15.674Z,21.80
2018-07-24T23:52:44.079Z,21.80
2018-07-24T23:55:12.432Z,21.80
2018-07-24T23:57:40.817Z,21.80
